createdAt,value
2017-05-13T08:25:36.090Z,9212
2017-05-13T08:26:36.760Z,9680
2017-05-13T08:27:37.428Z,10340
2017-05-13T08:28:38.122Z,11092
2017-05-13T08:29:38.786Z,11876
2017-05-13T08:30:39.483Z,12556
2017-05-13T08:31:40.154Z,13128
2017-05-13T08:32:40.829Z,13412
2017-05-13T08:33:41.504Z,13644
2017-05-13T08:34:42.175Z,14208
2017-05-13T08:35:42.917Z,15748
2017-05-13T08:36:43.641Z,18240
2017-05-13T08:37:44.363Z,20416
2017-05-13T08:38:45.067Z,21088
2017-05-13T08:39:45.738Z,18144
2017-05-13T08:40:46.411Z,16052
2017-05-13T08:41:47.104Z,14648
2017-05-13T08:42:47.774Z,13788
2017-05-13T08:43:48.474Z,13388
2017-05-13T08:44:49.156Z,13328
2017-05-13T08:45:49.819Z,13476
2017-05-13T08:46:50.515Z,13640
2017-05-13T08:47:51.199Z,13728
2017-05-13T08:48:51.906Z,13572
2017-05-13T08:49:52.596Z,13120
2017-05-13T08:50:53.289Z,12844
2017-05-13T08:51:53.955Z,12608
2017-05-13T08:52:54.654Z,12816
2017-05-13T08:53:55.361Z,13208
2017-05-13T08:54:56.038Z,13152
2017-05-13T08:55:56.748Z,12780
2017-05-13T08:56:57.435Z,12360
2017-05-13T08:57:58.153Z,11844
2017-05-13T08:58:58.840Z,11460
2017-05-13T08:59:59.507Z,11392
2017-05-13T09:01:00.234Z,13392
2017-05-13T09:02:00.955Z,11196
2017-05-13T09:03:01.659Z,11128
2017-05-13T09:04:02.365Z,10964
2017-05-13T09:05:03.053Z,10500
2017-05-13T09:06:03.743Z,10416
2017-05-13T09:07:04.421Z,10536
2017-05-13T09:08:05.139Z,10848
2017-05-13T09:09:05.827Z,11012
2017-05-13T09:10:06.516Z,11060
2017-05-13T09:11:07.224Z,11132
2017-05-13T09:12:07.918Z,11412
2017-05-13T09:13:08.596Z,11580
2017-05-13T09:14:09.287Z,11684
2017-05-13T09:15:09.987Z,11628
2017-05-13T09:16:10.662Z,11508
2017-05-13T09:17:11.331Z,11412
2017-05-13T09:18:12.017Z,11404
2017-05-13T09:19:12.724Z,11312
2017-05-13T09:20:13.453Z,11248
2017-05-13T09:21:14.159Z,11216
2017-05-13T09:22:14.856Z,11500
2017-05-13T09:23:15.528Z,12008
2017-05-13T09:24:16.192Z,13244
2017-05-13T09:25:16.876Z,14404
2017-05-13T09:26:17.597Z,13312
2017-05-13T09:27:18.265Z,13532
2017-05-13T09:28:18.941Z,13632
2017-05-13T09:29:19.608Z,13596
2017-05-13T09:30:20.284Z,13488
2017-05-13T09:31:20.962Z,13296
2017-05-13T09:32:21.635Z,13276
2017-05-13T09:33:22.347Z,13596
2017-05-13T09:34:23.064Z,14044
2017-05-13T09:35:23.775Z,14388
2017-05-13T09:36:24.467Z,14768
2017-05-13T09:37:25.141Z,15384
2017-05-13T09:38:25.814Z,15828
2017-05-13T09:39:26.537Z,15668
2017-05-13T09:40:27.209Z,15844
2017-05-13T09:41:27.873Z,16268
2017-05-13T09:42:28.568Z,18656
2017-05-13T09:43:29.276Z,28736
2017-05-13T09:44:30.005Z,46656
2017-05-13T09:45:30.681Z,28928
2017-05-13T09:46:31.353Z,25984
2017-05-13T09:47:32.017Z,28704
2017-05-13T09:48:32.696Z,26592
2017-05-13T09:49:33.375Z,26112
2017-05-13T09:50:34.083Z,25824
2017-05-13T09:51:34.755Z,25504
2017-05-13T09:52:35.423Z,24928
2017-05-13T09:53:36.094Z,24032
2017-05-13T09:54:36.772Z,22016
2017-05-13T09:55:37.477Z,23008
2017-05-13T09:56:38.172Z,23136
2017-05-13T09:57:38.869Z,22944
2017-05-13T09:58:39.585Z,24128
2017-05-13T09:59:40.284Z,24032
2017-05-13T10:00:41.013Z,23424
2017-05-13T10:01:41.728Z,22976
2017-05-13T10:02:42.403Z,22496
2017-05-13T10:03:43.078Z,22592
2017-05-13T10:04:43.766Z,22272
2017-05-13T10:05:44.490Z,21888
2017-05-13T10:06:45.201Z,20960
2017-05-13T10:07:45.889Z,20992
2017-05-13T10:08:46.610Z,21952
2017-05-13T10:09:47.317Z,22624
2017-05-13T10:10:47.992Z,23168
2017-05-13T10:11:48.661Z,22848
2017-05-13T10:12:49.334Z,22592
2017-05-13T10:13:50.024Z,22176
2017-05-13T10:14:50.704Z,22272
2017-05-13T10:15:51.394Z,22144
2017-05-13T10:16:52.067Z,21984
2017-05-13T10:17:52.739Z,21696
2017-05-13T10:18:53.425Z,21184
2017-05-13T10:19:54.138Z,21536
2017-05-13T10:20:54.823Z,22624
2017-05-13T10:21:55.535Z,23232
2017-05-13T10:22:56.214Z,24224
2017-05-13T10:23:56.912Z,24672
2017-05-13T10:24:57.610Z,24704
2017-05-13T10:25:58.285Z,24608
2017-05-13T10:26:58.997Z,24160
2017-05-13T10:27:59.720Z,23936
2017-05-13T10:29:00.397Z,23808
2017-05-13T10:30:01.081Z,23328
2017-05-13T10:31:01.769Z,22464
2017-05-13T10:32:02.471Z,21568
2017-05-13T10:33:03.162Z,20896
2017-05-13T10:34:03.866Z,19904
2017-05-13T10:35:04.551Z,19456
2017-05-13T10:36:05.223Z,18976
2017-05-13T10:37:06.032Z,18784
2017-05-13T10:38:06.704Z,18688
2017-05-13T10:39:07.374Z,18208
2017-05-13T10:40:08.050Z,18144
2017-05-13T10:41:08.771Z,18560
2017-05-13T10:42:09.444Z,19616
2017-05-13T10:43:10.138Z,19392
2017-05-13T10:44:10.838Z,18656
2017-05-13T10:45:11.521Z,17728
2017-05-13T10:46:12.206Z,17696
2017-05-13T10:47:12.911Z,18080
2017-05-13T10:48:13.625Z,19264
2017-05-13T10:49:14.303Z,20352
2017-05-13T10:50:15.014Z,19360
2017-05-13T10:51:15.803Z,17728
2017-05-13T10:52:16.524Z,15244
2017-05-13T10:53:17.203Z,13212
2017-05-13T10:54:17.928Z,14140
2017-05-13T10:55:18.611Z,14648
2017-05-13T10:56:19.323Z,14404
2017-05-13T10:57:20.045Z,14528
2017-05-13T10:58:20.762Z,13892
2017-05-13T10:59:21.466Z,13024
2017-05-13T11:00:22.159Z,12116
2017-05-13T11:01:22.835Z,12404
2017-05-13T11:02:23.552Z,12808
2017-05-13T11:03:24.278Z,13172
2017-05-13T11:04:25.744Z,13228
2017-05-13T11:05:26.443Z,13532
2017-05-13T11:06:27.128Z,13764
2017-05-13T11:07:27.840Z,13772
2017-05-13T11:08:28.518Z,14012
2017-05-13T11:09:29.210Z,14280
2017-05-13T11:10:29.900Z,14500
2017-05-13T11:11:30.578Z,14664
2017-05-13T11:12:31.265Z,14424
2017-05-13T11:13:31.954Z,14000
2017-05-13T11:14:32.648Z,14100
2017-05-13T11:15:33.316Z,13960
2017-05-13T11:16:34.001Z,13716
2017-05-13T11:17:34.704Z,13080
2017-05-13T11:18:35.393Z,12828
2017-05-13T11:19:36.122Z,12868
2017-05-13T11:20:36.831Z,12488
2017-05-13T11:21:37.522Z,11940
2017-05-13T11:22:38.223Z,11436
2017-05-13T11:23:38.918Z,11088
2017-05-13T11:24:39.601Z,10812
2017-05-13T11:25:40.293Z,10300
2017-05-13T11:26:41.023Z,9996
2017-05-13T11:27:41.705Z,9852
2017-05-13T11:28:42.396Z,10128
2017-05-13T11:29:43.098Z,10252
2017-05-13T11:30:43.812Z,10704
2017-05-13T11:31:44.494Z,12252
2017-05-13T11:32:45.253Z,13212
2017-05-13T11:33:45.948Z,13240
2017-05-13T11:34:46.657Z,12856
2017-05-13T11:35:47.400Z,12132
2017-05-13T11:36:48.103Z,11248
2017-05-13T11:37:48.789Z,10296
2017-05-13T11:38:49.478Z,9408
2017-05-13T11:39:50.167Z,8936
2017-05-13T11:40:50.842Z,8824
2017-05-13T11:41:51.692Z,8752
2017-05-13T11:42:52.403Z,8852
2017-05-13T11:43:53.095Z,9232
2017-05-13T11:44:53.780Z,9768
2017-05-13T11:45:54.512Z,10280
2017-05-13T11:46:55.187Z,10984
2017-05-13T11:47:55.880Z,11476
2017-05-13T11:48:56.735Z,11696
2017-05-13T11:49:57.418Z,11720
2017-05-13T11:50:58.123Z,11820
2017-05-13T11:51:58.851Z,11852
2017-05-13T11:52:59.701Z,11820
2017-05-13T11:54:00.404Z,11712
2017-05-13T11:55:01.078Z,11564
2017-05-13T11:56:01.898Z,11412
2017-05-13T11:57:02.753Z,11092
2017-05-13T11:58:03.467Z,10672
2017-05-13T11:59:04.188Z,10072
2017-05-13T12:00:04.905Z,8900
2017-05-13T12:01:05.618Z,7148
2017-05-13T12:02:06.495Z,6036
2017-05-13T12:03:07.191Z,5652
2017-05-13T12:04:07.949Z,5432
2017-05-13T12:05:08.627Z,5168
2017-05-13T12:06:09.337Z,4884
2017-05-13T12:07:10.026Z,4480
2017-05-13T12:08:10.740Z,4024
2017-05-13T12:09:11.524Z,3648
2017-05-13T12:10:12.226Z,3368
2017-05-13T12:11:12.956Z,3200
2017-05-13T12:12:13.656Z,3016
2017-05-13T12:13:14.350Z,2864
2017-05-13T12:14:15.071Z,2784
2017-05-13T12:15:15.795Z,2736
2017-05-13T12:16:16.607Z,2684
2017-05-13T12:17:17.372Z,2624
2017-05-13T12:18:18.071Z,2572
2017-05-13T12:19:18.767Z,2508
2017-05-13T12:20:19.477Z,2484
2017-05-13T12:21:20.171Z,2492
2017-05-13T12:22:20.878Z,2476
2017-05-13T12:23:21.586Z,2456
2017-05-13T12:24:22.294Z,2416
2017-05-13T12:25:22.999Z,2316
2017-05-13T12:26:23.691Z,2224
2017-05-13T12:27:24.371Z,2160
2017-05-13T12:28:25.071Z,2100
2017-05-13T12:29:25.760Z,1960
2017-05-13T12:30:26.457Z,1788
2017-05-13T12:31:27.164Z,1696
2017-05-13T12:32:27.862Z,1680
2017-05-13T12:33:28.558Z,1708
2017-05-13T12:34:29.289Z,1772
2017-05-13T12:35:29.974Z,1824
2017-05-13T12:36:30.663Z,1832
2017-05-13T12:37:31.352Z,1820
2017-05-13T12:38:32.089Z,1792
2017-05-13T12:39:32.880Z,1764
2017-05-13T12:40:33.580Z,1740
2017-05-13T12:41:34.296Z,1712
2017-05-13T12:42:34.982Z,1684
2017-05-13T12:43:35.678Z,1652
2017-05-13T12:44:36.367Z,1612
2017-05-13T12:45:37.113Z,1572
2017-05-13T12:46:37.796Z,1528
2017-05-13T12:47:38.604Z,1484
2017-05-13T12:48:39.317Z,1436
2017-05-13T12:49:39.998Z,1380
2017-05-13T12:50:40.678Z,1332
2017-05-13T12:51:41.379Z,1284
2017-05-13T12:52:42.059Z,1236
2017-05-13T12:53:42.759Z,1196
2017-05-13T12:54:43.456Z,1164
2017-05-13T12:55:44.152Z,1136
2017-05-13T12:56:44.869Z,1116
2017-05-13T12:57:45.583Z,1100
2017-05-13T12:58:46.348Z,1088
2017-05-13T12:59:47.076Z,1080
2017-05-13T13:00:47.800Z,1088
2017-05-13T13:01:48.635Z,1096
2017-05-13T13:02:49.320Z,1108
2017-05-13T13:03:50.019Z,1124
2017-05-13T13:04:50.848Z,1148
2017-05-13T13:05:51.611Z,1160
2017-05-13T13:06:52.338Z,1192
2017-05-13T13:07:53.030Z,1224
2017-05-13T13:08:53.751Z,1260
2017-05-13T13:09:54.422Z,1292
2017-05-13T13:10:55.110Z,1312
2017-05-13T13:11:56.056Z,1328
2017-05-13T13:12:56.814Z,1304
2017-05-13T13:13:57.586Z,1332
2017-05-13T13:14:58.325Z,1360
2017-05-13T13:15:59.019Z,1388
2017-05-13T13:16:59.727Z,1416
2017-05-13T13:18:00.417Z,1448
2017-05-13T13:19:01.121Z,1484
2017-05-13T13:20:01.829Z,1524
2017-05-13T13:21:02.532Z,1564
2017-05-13T13:22:03.235Z,1608
2017-05-13T13:23:03.926Z,1668
2017-05-13T13:24:04.591Z,1720
2017-05-13T13:25:05.266Z,1764
2017-05-13T13:26:05.944Z,1816
2017-05-13T13:27:06.654Z,1868
2017-05-13T13:28:07.343Z,1916
2017-05-13T13:29:08.064Z,1960
2017-05-13T13:30:08.739Z,2008
2017-05-13T13:31:09.423Z,2056
2017-05-13T13:32:10.131Z,2092
2017-05-13T13:33:10.847Z,2136
2017-05-13T13:34:11.570Z,2192
2017-05-13T13:35:12.240Z,2252
2017-05-13T13:36:12.916Z,2324
2017-05-13T13:37:13.592Z,2404
2017-05-13T13:38:14.268Z,2480
2017-05-13T13:39:14.985Z,2560
2017-05-13T13:40:15.703Z,2644
2017-05-13T13:41:16.390Z,2824
2017-05-13T13:42:17.116Z,2924
2017-05-13T13:43:17.803Z,3052
2017-05-13T13:44:18.500Z,3204
2017-05-13T13:45:19.169Z,3388
2017-05-13T13:46:19.852Z,3604
2017-05-13T13:47:20.573Z,3852
2017-05-13T13:48:21.266Z,4112
2017-05-13T13:49:21.960Z,4344
2017-05-13T13:50:22.633Z,4560
2017-05-13T13:51:23.337Z,4732
2017-05-13T13:52:24.022Z,4852
2017-05-13T13:53:24.695Z,4852
2017-05-13T13:54:25.383Z,4760
2017-05-13T13:55:26.106Z,4624
2017-05-13T13:56:26.836Z,4444
2017-05-13T13:57:27.543Z,4244
2017-05-13T13:58:28.218Z,4064
2017-05-13T13:59:28.896Z,3956
2017-05-13T14:00:29.571Z,3880
2017-05-13T14:01:30.279Z,3792
2017-05-13T14:02:31.008Z,3644
2017-05-13T14:03:31.684Z,3460
2017-05-13T14:04:32.405Z,3252
2017-05-13T14:05:33.088Z,3052
2017-05-13T14:06:33.770Z,2884
2017-05-13T14:07:34.481Z,2756
2017-05-13T14:08:35.194Z,2656
2017-05-13T14:09:35.866Z,2560
2017-05-13T14:10:36.547Z,2480
2017-05-13T14:11:37.222Z,2420
2017-05-13T14:12:37.943Z,2372
2017-05-13T14:13:38.662Z,2332
2017-05-13T14:14:39.347Z,2312
2017-05-13T14:15:40.057Z,2284
2017-05-13T14:16:40.748Z,2264
2017-05-13T14:17:41.443Z,2256
2017-05-13T14:18:42.122Z,2260
2017-05-13T14:19:42.787Z,2260
2017-05-13T14:20:43.479Z,2256
2017-05-13T14:21:44.210Z,2256
2017-05-13T14:22:44.915Z,2260
2017-05-13T14:23:45.584Z,2272
2017-05-13T14:24:46.304Z,2296
2017-05-13T14:25:47.022Z,2328
2017-05-13T14:26:47.708Z,2380
2017-05-13T14:27:48.385Z,2444
2017-05-13T14:28:49.107Z,2512
2017-05-13T14:29:49.788Z,2572
2017-05-13T14:30:50.491Z,2624
2017-05-13T14:31:51.179Z,2648
2017-05-13T14:32:51.889Z,2664
2017-05-13T14:33:52.557Z,2672
2017-05-13T14:34:53.248Z,2684
2017-05-13T14:35:53.954Z,2700
2017-05-13T14:36:54.676Z,2712
2017-05-13T14:37:55.355Z,2724
2017-05-13T14:38:56.021Z,2736
2017-05-13T14:39:56.695Z,2752
2017-05-13T14:40:57.394Z,2784
2017-05-13T14:41:58.092Z,2856
2017-05-13T14:42:58.810Z,2980
2017-05-13T14:43:59.500Z,3152
2017-05-13T14:45:00.214Z,3348
2017-05-13T14:46:00.919Z,3588
2017-05-13T14:47:01.606Z,3840
2017-05-13T14:48:02.282Z,4116
2017-05-13T14:49:02.954Z,4364
2017-05-13T14:50:03.677Z,4548
2017-05-13T14:51:04.429Z,4676
2017-05-13T14:52:05.129Z,4812
2017-05-13T14:53:05.840Z,4884
2017-05-13T14:54:06.520Z,4992
2017-05-13T14:55:07.200Z,5084
2017-05-13T14:56:07.871Z,5168
2017-05-13T14:57:08.542Z,5240
2017-05-13T14:58:09.214Z,5228
2017-05-13T14:59:09.877Z,5116
2017-05-13T15:00:10.547Z,4952
2017-05-13T15:01:11.226Z,4808
2017-05-13T15:02:11.907Z,4720
2017-05-13T15:03:12.628Z,4700
2017-05-13T15:04:13.318Z,4756
2017-05-13T15:05:13.990Z,4880
2017-05-13T15:06:14.695Z,5056
2017-05-13T15:07:15.392Z,5268
2017-05-13T15:08:16.080Z,5508
2017-05-13T15:09:16.760Z,5800
2017-05-13T15:10:17.475Z,6216
2017-05-13T15:11:18.150Z,6752
2017-05-13T15:12:18.837Z,7464
2017-05-13T15:13:19.543Z,8244
2017-05-13T15:14:20.246Z,9088
2017-05-13T15:15:20.929Z,9912
2017-05-13T15:16:21.624Z,10764
2017-05-13T15:17:22.310Z,11492
2017-05-13T15:18:23.058Z,12024
2017-05-13T15:19:23.737Z,12680
2017-05-13T15:20:24.413Z,13116
2017-05-13T15:21:25.096Z,13376
2017-05-13T15:22:25.780Z,13516
2017-05-13T15:23:26.479Z,13548
2017-05-13T15:24:27.165Z,13292
2017-05-13T15:25:27.853Z,12956
2017-05-13T15:26:28.546Z,12644
2017-05-13T15:27:29.229Z,12784
2017-05-13T15:28:29.935Z,13004
2017-05-13T15:29:30.624Z,13240
2017-05-13T15:30:31.335Z,13172
2017-05-13T15:31:32.038Z,13104
2017-05-13T15:32:32.749Z,12488
2017-05-13T15:33:33.439Z,11340
2017-05-13T15:34:34.120Z,9952
2017-05-13T15:35:34.821Z,8980
2017-05-13T15:36:35.495Z,8092
2017-05-13T15:37:36.206Z,7440
2017-05-13T15:38:36.897Z,7088
2017-05-13T15:39:37.604Z,6784
2017-05-13T15:40:38.298Z,6744
2017-05-13T15:41:38.994Z,6704
2017-05-13T15:42:39.673Z,6288
2017-05-13T15:43:40.383Z,5508
2017-05-13T15:44:41.075Z,4860
2017-05-13T15:45:41.760Z,4404
2017-05-13T15:46:42.458Z,4108
2017-05-13T15:47:43.140Z,3944
2017-05-13T15:48:43.843Z,4188
2017-05-13T15:49:44.534Z,4536
2017-05-13T15:50:45.216Z,5168
2017-05-13T15:51:45.926Z,5740
2017-05-13T15:52:46.593Z,6756
2017-05-13T15:53:47.271Z,7256
2017-05-13T15:54:47.956Z,6876
2017-05-13T15:55:48.652Z,6048
2017-05-13T15:56:49.357Z,5304
2017-05-13T15:57:50.106Z,5048
2017-05-13T15:58:50.807Z,4752
2017-05-13T15:59:51.499Z,4340
2017-05-13T16:00:52.183Z,3892
2017-05-13T16:01:52.859Z,3756
2017-05-13T16:02:53.567Z,3648
2017-05-13T16:03:54.248Z,3632
2017-05-13T16:04:54.924Z,3600
2017-05-13T16:05:55.639Z,3472
2017-05-13T16:06:56.318Z,3364
2017-05-13T16:07:57.015Z,3336
2017-05-13T16:08:57.717Z,3088
2017-05-13T16:09:58.403Z,3076
2017-05-13T16:10:59.091Z,3264
2017-05-13T16:11:59.778Z,3620
2017-05-13T16:13:00.460Z,4388
2017-05-13T16:14:01.179Z,5240
2017-05-13T16:15:01.851Z,5560
2017-05-13T16:16:02.525Z,5408
2017-05-13T16:17:03.213Z,5108
2017-05-13T16:18:03.901Z,4764
2017-05-13T16:19:04.588Z,4380
2017-05-13T16:20:05.295Z,3980
2017-05-13T16:21:06.001Z,4064
2017-05-13T16:22:06.695Z,4500
2017-05-13T16:23:07.386Z,4820
2017-05-13T16:24:08.080Z,5144
2017-05-13T16:25:08.772Z,5416
2017-05-13T16:26:09.506Z,5188
2017-05-13T16:27:10.184Z,4564
2017-05-13T16:28:10.883Z,3956
2017-05-13T16:29:11.568Z,3732
2017-05-13T16:30:12.272Z,3632
2017-05-13T16:31:12.952Z,3436
2017-05-13T16:32:13.639Z,3364
2017-05-13T16:33:14.332Z,3308
2017-05-13T16:34:15.018Z,3064
2017-05-13T16:35:15.699Z,2788
2017-05-13T16:36:16.399Z,2604
2017-05-13T16:37:17.092Z,2528
2017-05-13T16:38:17.783Z,2496
2017-05-13T16:39:18.489Z,2492
2017-05-13T16:40:19.214Z,2548
2017-05-13T16:41:19.888Z,2508
2017-05-13T16:42:20.600Z,2420
2017-05-13T16:43:21.304Z,2340
2017-05-13T16:44:21.979Z,2252
2017-05-13T16:45:22.673Z,2180
2017-05-13T16:46:23.399Z,2180
2017-05-13T16:47:24.125Z,2288
2017-05-13T16:48:24.809Z,2568
2017-05-13T16:49:25.520Z,2912
2017-05-13T16:50:26.190Z,3068
2017-05-13T16:51:26.864Z,2956
2017-05-13T16:52:27.557Z,2752
2017-05-13T16:53:28.240Z,2576
2017-05-13T16:54:28.921Z,2492
2017-05-13T16:55:29.602Z,2432
2017-05-13T16:56:30.330Z,2384
2017-05-13T16:57:31.004Z,2356
2017-05-13T16:58:31.720Z,2332
2017-05-13T16:59:32.395Z,2332
2017-05-13T17:00:33.114Z,2352
2017-05-13T17:01:33.790Z,2384
2017-05-13T17:02:34.467Z,2416
2017-05-13T17:03:35.159Z,2432
2017-05-13T17:04:35.850Z,2428
2017-05-13T17:05:36.532Z,2428
2017-05-13T17:06:37.201Z,2428
2017-05-13T17:07:37.881Z,2436
2017-05-13T17:08:38.621Z,2436
2017-05-13T17:09:39.268Z,2424
2017-05-13T17:10:39.968Z,2396
2017-05-13T17:11:40.668Z,2372
2017-05-13T17:12:41.347Z,2356
2017-05-13T17:13:42.069Z,2404
2017-05-13T17:14:42.716Z,2456
2017-05-13T17:15:43.404Z,2472
2017-05-13T17:16:44.101Z,2420
2017-05-13T17:17:44.808Z,2332
2017-05-13T17:18:45.517Z,2288
2017-05-13T17:19:46.214Z,2308
2017-05-13T17:20:46.888Z,2316
2017-05-13T17:21:47.571Z,2252
2017-05-13T17:22:48.307Z,2088
2017-05-13T17:23:48.996Z,1936
2017-05-13T17:24:49.666Z,1864
2017-05-13T17:25:50.348Z,1816
2017-05-13T17:26:51.015Z,1760
2017-05-13T17:27:51.749Z,1696
2017-05-13T17:28:52.447Z,1636
2017-05-13T17:29:53.142Z,1576
2017-05-13T17:30:53.855Z,1532
2017-05-13T17:31:54.547Z,1512
2017-05-13T17:32:55.259Z,1472
2017-05-13T17:33:55.934Z,1396
2017-05-13T17:34:56.642Z,1292
2017-05-13T17:35:57.340Z,1180
2017-05-13T17:36:58.059Z,1104
2017-05-13T17:37:58.784Z,1060
2017-05-13T17:38:59.516Z,1032
2017-05-13T17:40:00.213Z,1012
2017-05-13T17:41:00.900Z,980
2017-05-13T17:42:01.572Z,940
2017-05-13T17:43:02.252Z,900
2017-05-13T17:44:02.944Z,880
2017-05-13T17:45:03.690Z,876
2017-05-13T17:46:04.408Z,872
2017-05-13T17:47:05.121Z,848
2017-05-13T17:48:05.804Z,800
2017-05-13T17:49:06.528Z,744
2017-05-13T17:50:07.200Z,684
2017-05-13T17:51:07.907Z,632
2017-05-13T17:52:08.581Z,592
2017-05-13T17:53:09.252Z,556
2017-05-13T17:54:09.958Z,520
2017-05-13T17:55:10.652Z,492
2017-05-13T17:56:11.331Z,456
2017-05-13T17:57:12.014Z,408
2017-05-13T17:58:12.720Z,364
2017-05-13T17:59:13.441Z,328
2017-05-13T18:00:14.117Z,336
2017-05-13T18:01:14.803Z,376
2017-05-13T18:02:15.486Z,420
2017-05-13T18:03:16.181Z,460
2017-05-13T18:04:16.859Z,496
2017-05-13T18:05:17.561Z,532
2017-05-13T18:06:18.277Z,552
2017-05-13T18:07:18.931Z,536
2017-05-13T18:08:19.659Z,516
2017-05-13T18:09:20.326Z,524
2017-05-13T18:10:20.987Z,540
2017-05-13T18:11:21.674Z,548
2017-05-13T18:12:22.419Z,536
2017-05-13T18:13:23.107Z,524
2017-05-13T18:14:23.827Z,508
2017-05-13T18:15:24.515Z,496
2017-05-13T18:16:25.200Z,484
2017-05-13T18:17:25.914Z,472
2017-05-13T18:18:26.581Z,468
2017-05-13T18:19:27.276Z,472
2017-05-13T18:20:27.976Z,492
2017-05-13T18:21:28.649Z,504
2017-05-13T18:22:29.320Z,512
2017-05-13T18:23:29.994Z,520
2017-05-13T18:24:30.709Z,536
2017-05-13T18:25:31.428Z,556
2017-05-13T18:26:32.109Z,588
2017-05-13T18:27:32.792Z,632
2017-05-13T18:28:33.509Z,680
2017-05-13T18:29:34.190Z,716
2017-05-13T18:30:34.878Z,744
2017-05-13T18:31:35.565Z,744
2017-05-13T18:32:36.302Z,728
2017-05-13T18:33:36.994Z,692
2017-05-13T18:34:37.680Z,652
2017-05-13T18:35:38.362Z,608
2017-05-13T18:36:39.040Z,552
2017-05-13T18:37:39.724Z,492
2017-05-13T18:38:40.455Z,432
2017-05-13T18:39:41.123Z,368
2017-05-13T18:40:41.829Z,308
2017-05-13T18:41:42.504Z,264
2017-05-13T18:42:43.201Z,224
2017-05-13T18:43:43.947Z,188
2017-05-13T18:44:44.629Z,152
2017-05-13T18:45:45.314Z,124
2017-05-13T18:46:46.021Z,104
2017-05-13T18:47:46.693Z,96
2017-05-13T18:48:47.381Z,84
2017-05-13T18:49:48.051Z,76
2017-05-13T18:50:48.724Z,68
2017-05-13T18:51:49.476Z,60
2017-05-13T18:52:50.198Z,56
2017-05-13T18:53:50.871Z,56
2017-05-13T18:54:51.544Z,56
2017-05-13T18:55:52.217Z,52
2017-05-13T18:56:52.925Z,52
2017-05-13T18:57:53.628Z,48
2017-05-13T18:58:54.340Z,48
2017-05-13T18:59:55.031Z,40
2017-05-13T19:00:55.745Z,36
2017-05-13T19:01:56.407Z,32
2017-05-13T19:02:57.080Z,28
2017-05-13T19:03:57.774Z,24
2017-05-13T19:04:58.469Z,28
2017-05-13T19:05:59.193Z,20
2017-05-13T19:06:59.914Z,24
2017-05-13T19:08:00.638Z,20
2017-05-13T19:09:01.318Z,20
2017-05-13T19:10:01.990Z,20
2017-05-13T19:11:02.729Z,16
2017-05-13T19:12:03.441Z,16
2017-05-13T19:13:04.156Z,20
2017-05-13T19:14:04.827Z,16
2017-05-13T19:15:05.503Z,16
2017-05-13T19:16:06.203Z,16
2017-05-13T19:17:06.872Z,16
2017-05-13T19:18:07.575Z,12
2017-05-13T19:19:08.260Z,12
2017-05-13T19:20:08.933Z,12
2017-05-13T19:21:09.631Z,12
2017-05-13T19:22:10.330Z,16
2017-05-13T19:23:11.000Z,12
2017-05-13T19:24:11.692Z,12
2017-05-13T19:25:12.399Z,12
2017-05-13T19:26:13.083Z,8
2017-05-13T19:27:13.766Z,8
2017-05-13T19:28:14.450Z,12
2017-05-13T19:29:15.129Z,8
2017-05-13T19:30:15.802Z,8
2017-05-13T19:31:16.493Z,8
2017-05-13T19:32:17.160Z,8
2017-05-13T19:33:17.834Z,8
2017-05-13T19:34:18.503Z,8
2017-05-13T19:35:19.219Z,8
2017-05-13T19:36:19.907Z,8
2017-05-13T19:37:20.613Z,8
2017-05-13T19:38:21.283Z,4
2017-05-13T19:39:22.002Z,4
2017-05-13T19:40:22.696Z,4
2017-05-13T19:41:23.386Z,4
2017-05-13T19:42:24.058Z,4
2017-05-13T19:43:24.746Z,4
2017-05-13T19:44:25.457Z,4
2017-05-13T19:45:26.107Z,0
2017-05-13T19:46:26.805Z,0
2017-05-13T19:47:27.491Z,4
2017-05-13T19:48:28.164Z,4
2017-05-13T19:49:28.845Z,0
2017-05-13T19:50:29.543Z,0
2017-05-13T19:51:30.218Z,0
2017-05-13T19:52:30.892Z,0
2017-05-13T19:53:31.565Z,0
2017-05-13T19:54:32.235Z,0
2017-05-13T19:55:32.914Z,0
2017-05-13T19:56:33.605Z,0
2017-05-13T19:57:34.297Z,0
2017-05-13T19:58:34.988Z,0
2017-05-13T19:59:35.673Z,0
2017-05-13T20:00:36.373Z,0
2017-05-13T20:01:37.063Z,0
2017-05-13T20:02:37.733Z,0
2017-05-13T20:03:38.436Z,0
2017-05-13T20:04:39.162Z,0
2017-05-13T20:05:39.828Z,0
2017-05-13T20:06:40.507Z,0
2017-05-13T20:07:41.208Z,0
2017-05-13T20:08:41.874Z,0
2017-05-13T20:09:42.576Z,0
2017-05-13T20:10:43.248Z,0
2017-05-13T20:11:43.923Z,0
2017-05-13T20:12:44.587Z,0
2017-05-13T20:13:45.311Z,0
2017-05-13T20:14:46.009Z,0
2017-05-13T20:15:46.706Z,0
2017-05-13T20:16:47.388Z,0
2017-05-13T20:17:48.057Z,0
2017-05-13T20:18:48.736Z,0
2017-05-13T20:19:49.447Z,0
2017-05-13T20:20:50.123Z,0
2017-05-13T20:21:50.848Z,0
2017-05-13T20:22:51.545Z,0
2017-05-13T20:23:52.213Z,0
2017-05-13T20:24:52.909Z,0
2017-05-13T20:25:53.601Z,0
2017-05-13T20:26:54.316Z,0
2017-05-13T20:27:54.990Z,0
2017-05-13T20:28:55.685Z,0
2017-05-13T20:29:56.390Z,0
2017-05-13T20:30:57.059Z,0
2017-05-13T20:31:57.734Z,0
2017-05-13T20:32:58.404Z,0
2017-05-13T20:33:59.079Z,0
2017-05-13T20:34:59.771Z,0
2017-05-13T20:36:00.469Z,0
2017-05-13T20:37:01.146Z,0
2017-05-13T20:38:01.821Z,0
2017-05-13T20:39:02.491Z,0
2017-05-13T20:40:03.162Z,0
2017-05-13T20:41:03.838Z,0
2017-05-13T20:42:04.519Z,0
2017-05-13T20:43:05.213Z,0
2017-05-13T20:44:05.938Z,0
2017-05-13T20:45:06.631Z,0
2017-05-13T20:46:07.298Z,0
2017-05-13T20:47:07.989Z,0
2017-05-13T20:48:08.686Z,0
2017-05-13T20:49:09.369Z,0
2017-05-13T20:50:10.050Z,0
2017-05-13T20:51:10.745Z,0
2017-05-13T20:52:11.431Z,0
2017-05-13T20:53:12.111Z,0
2017-05-13T20:54:12.766Z,0
2017-05-13T20:55:13.442Z,0
2017-05-13T20:56:14.127Z,0
2017-05-13T20:57:14.853Z,0
2017-05-13T20:58:15.559Z,0
2017-05-13T20:59:16.229Z,0
2017-05-13T21:00:16.913Z,0
2017-05-13T21:01:17.606Z,0
2017-05-13T21:02:18.306Z,0
2017-05-13T21:03:18.973Z,0
2017-05-13T21:04:19.641Z,0
2017-05-13T21:05:20.345Z,0
2017-05-13T21:06:21.048Z,0
2017-05-13T21:07:21.760Z,0
2017-05-13T21:08:22.434Z,0
2017-05-13T21:09:23.101Z,0
2017-05-13T21:10:23.777Z,0
2017-05-13T21:11:24.460Z,0
2017-05-13T21:12:25.146Z,0
2017-05-13T21:13:25.841Z,0
2017-05-13T21:14:26.570Z,0
2017-05-13T21:15:27.244Z,0
2017-05-13T21:16:27.917Z,0
2017-05-13T21:17:28.590Z,0
2017-05-13T21:18:29.278Z,0
2017-05-13T21:19:29.933Z,0
2017-05-13T21:20:30.612Z,0
2017-05-13T21:21:31.325Z,0
2017-05-13T21:22:32.032Z,0
2017-05-13T21:23:32.750Z,0
2017-05-13T21:24:33.449Z,0
2017-05-13T21:25:34.133Z,0
2017-05-13T21:26:34.830Z,0
2017-05-13T21:27:35.660Z,0
2017-05-13T21:28:37.075Z,0
2017-05-13T21:29:38.013Z,0
2017-05-13T21:30:38.824Z,0
2017-05-13T21:31:39.698Z,0
2017-05-13T21:32:40.562Z,0
2017-05-13T21:33:41.543Z,0
2017-05-13T21:34:42.689Z,0
2017-05-13T21:35:43.457Z,0
2017-05-13T21:36:44.134Z,0
2017-05-13T21:37:44.809Z,0
2017-05-13T21:38:45.479Z,0
2017-05-13T21:39:46.154Z,0
2017-05-13T21:40:46.849Z,0
2017-05-13T21:41:47.533Z,0
2017-05-13T21:42:48.225Z,0
2017-05-13T21:43:48.890Z,0
2017-05-13T21:44:49.603Z,0
2017-05-13T21:45:50.336Z,0
2017-05-13T21:46:51.085Z,0
2017-05-13T21:47:51.786Z,0
2017-05-13T21:48:52.461Z,0
2017-05-13T21:49:53.121Z,0
2017-05-13T21:50:53.876Z,0
2017-05-13T21:51:54.561Z,0
2017-05-13T21:52:55.235Z,0
2017-05-13T21:53:56.655Z,0
2017-05-13T21:54:57.360Z,0
2017-05-13T21:55:58.055Z,0
2017-05-13T21:56:58.756Z,0
2017-05-13T21:57:59.419Z,0
2017-05-13T21:59:00.111Z,0
2017-05-13T22:00:00.769Z,0
2017-05-13T22:01:01.454Z,0
2017-05-13T22:02:02.135Z,0
2017-05-13T22:03:02.831Z,0
2017-05-13T22:04:03.521Z,0
2017-05-13T22:05:04.182Z,0
2017-05-13T22:06:04.877Z,0